sensor_id;sensor_type;location;lat;lon;timestamp;P1;durP1;ratioP1;P2;durP2;ratioP2
6755;SDS011;3415;51.148;7.014;2022-08-03T05:00:53;3.00;;;2.37;;
6755;SDS011;3415;51.148;7.014;2022-08-03T05:03:20;4.00;;;2.50;;
6755;SDS011;3415;51.148;7.014;2022-08-03T05:05:48;2.83;;;2.53;;
6755;SDS011;3415;51.148;7.014;2022-08-03T05:08:16;2.80;;;2.50;;
6755;SDS011;3415;51.148;7.014;2022-08-03T05:10:43;4.37;;;3.03;;
6755;SDS011;3415;51.148;7.014;2022-08-03T05:13:11;3.90;;;3.20;;
6755;SDS011;3415;51.148;7.014;2022-08-03T05:15:40;4.20;;;3.00;;
6755;SDS011;3415;51.148;7.014;2022-08-03T05:18:07;5.40;;;2.80;;
6755;SDS011;3415;51.148;7.014;2022-08-03T05:20:34;2.80;;;2.20;;
6755;SDS011;3415;51.148;7.014;2022-08-03T05:23:01;3.07;;;2.77;;
6755;SDS011;3415;51.148;7.014;2022-08-03T05:25:28;3.03;;;2.47;;
6755;SDS011;3415;51.148;7.014;2022-08-03T05:27:56;2.43;;;2.23;;
6755;SDS011;3415;51.148;7.014;2022-08-03T05:30:22;3.90;;;2.40;;
6755;SDS011;3415;51.148;7.014;2022-08-03T05:32:51;3.30;;;2.30;;
6755;SDS011;3415;51.148;7.014;2022-08-03T05:35:18;6.70;;;2.83;;
6755;SDS011;3415;51.148;7.014;2022-08-03T05:37:45;3.37;;;2.40;;
6755;SDS011;3415;51.148;7.014;2022-08-03T05:40:12;2.67;;;2.37;;
6755;SDS011;3415;51.148;7.014;2022-08-03T05:42:39;2.20;;;2.00;;
6755;SDS011;3415;51.148;7.014;2022-08-03T05:45:07;4.53;;;1.83;;
6755;SDS011;3415;51.148;7.014;2022-08-03T05:47:40;9.23;;;2.70;;
6755;SDS011;3415;51.148;7.014;2022-08-03T05:50:09;2.23;;;2.03;;
6755;SDS011;3415;51.148;7.014;2022-08-03T05:52:37;2.90;;;2.50;;
6755;SDS011;3415;51.148;7.014;2022-08-03T05:55:05;3.53;;;2.50;;
6755;SDS011;3415;51.148;7.014;2022-08-03T05:57:33;6.97;;;2.30;;
6755;SDS011;3415;51.148;7.014;2022-08-03T06:00:00;2.57;;;2.37;;
6755;SDS011;3415;51.148;7.014;2022-08-03T06:02:29;4.27;;;3.60;;
6755;SDS011;3415;51.148;7.014;2022-08-03T06:04:57;2.63;;;2.27;;
6755;SDS011;3415;51.148;7.014;2022-08-03T06:07:25;3.00;;;2.70;;
6755;SDS011;3415;51.148;7.014;2022-08-03T06:09:52;6.73;;;2.67;;
6755;SDS011;3415;51.148;7.014;2022-08-03T06:12:20;2.37;;;2.17;;
6755;SDS011;3415;51.148;7.014;2022-08-03T06:14:47;3.37;;;3.07;;
6755;SDS011;3415;51.148;7.014;2022-08-03T06:17:14;3.57;;;3.00;;
6755;SDS011;3415;51.148;7.014;2022-08-03T06:19:41;3.60;;;2.30;;
6755;SDS011;3415;51.148;7.014;2022-08-03T06:22:08;3.17;;;2.87;;
6755;SDS011;3415;51.148;7.014;2022-08-03T06:24:36;3.20;;;2.67;;
6755;SDS011;3415;51.148;7.014;2022-08-03T06:27:03;6.53;;;2.93;;
6755;SDS011;3415;51.148;7.014;2022-08-03T06:29:30;3.20;;;2.90;;
6755;SDS011;3415;51.148;7.014;2022-08-03T06:31:58;4.20;;;2.53;;
6755;SDS011;3415;51.148;7.014;2022-08-03T06:34:25;2.93;;;2.67;;
6755;SDS011;3415;51.148;7.014;2022-08-03T06:36:52;7.40;;;2.93;;
6755;SDS011;3415;51.148;7.014;2022-08-03T06:39:19;4.20;;;2.73;;
6755;SDS011;3415;51.148;7.014;2022-08-03T06:41:48;2.97;;;2.70;;
6755;SDS011;3415;51.148;7.014;2022-08-03T06:44:16;3.07;;;2.77;;
6755;SDS011;3415;51.148;7.014;2022-08-03T06:46:43;2.63;;;2.43;;
6755;SDS011;3415;51.148;7.014;2022-08-03T06:49:10;5.13;;;2.83;;
6755;SDS011;3415;51.148;7.014;2022-08-03T06:51:37;2.50;;;2.30;;
6755;SDS011;3415;51.148;7.014;2022-08-03T06:54:04;4.53;;;3.00;;
6755;SDS011;3415;51.148;7.014;2022-08-03T06:56:32;2.60;;;2.30;;
6755;SDS011;3415;51.148;7.014;2022-08-03T06:59:00;2.90;;;2.57;;
6755;SDS011;3415;51.148;7.014;2022-08-03T07:01:27;3.40;;;2.60;;
6755;SDS011;3415;51.148;7.014;2022-08-03T07:03:54;3.60;;;2.50;;
6755;SDS011;3415;51.148;7.014;2022-08-03T07:06:21;3.00;;;2.70;;
6755;SDS011;3415;51.148;7.014;2022-08-03T07:08:48;4.43;;;2.37;;
6755;SDS011;3415;51.148;7.014;2022-08-03T07:11:16;3.13;;;2.83;;
6755;SDS011;3415;51.148;7.014;2022-08-03T07:13:43;2.63;;;2.17;;
6755;SDS011;3415;51.148;7.014;2022-08-03T07:16:12;2.47;;;2.27;;
6755;SDS011;3415;51.148;7.014;2022-08-03T07:18:39;3.73;;;2.70;;
6755;SDS011;3415;51.148;7.014;2022-08-03T07:21:06;3.70;;;2.40;;
6755;SDS011;3415;51.148;7.014;2022-08-03T07:23:35;5.53;;;2.70;;
6755;SDS011;3415;51.148;7.014;2022-08-03T07:26:02;2.60;;;2.40;;
6755;SDS011;3415;51.148;7.014;2022-08-03T07:28:29;4.53;;;2.40;;
6755;SDS011;3415;51.148;7.014;2022-08-03T07:30:56;4.27;;;2.80;;
6755;SDS011;3415;51.148;7.014;2022-08-03T07:33:25;13.00;;;2.77;;
6755;SDS011;3415;51.148;7.014;2022-08-03T07:35:52;2.90;;;2.70;;
6755;SDS011;3415;51.148;7.014;2022-08-03T07:38:19;4.07;;;2.57;;
6755;SDS011;3415;51.148;7.014;2022-08-03T07:40:46;3.53;;;2.40;;
6755;SDS011;3415;51.148;7.014;2022-08-03T07:43:14;5.07;;;2.47;;
6755;SDS011;3415;51.148;7.014;2022-08-03T07:45:41;2.30;;;2.10;;
6755;SDS011;3415;51.148;7.014;2022-08-03T07:48:08;2.57;;;2.00;;
6755;SDS011;3415;51.148;7.014;2022-08-03T07:50:37;3.27;;;2.00;;
6755;SDS011;3415;51.148;7.014;2022-08-03T07:53:04;4.47;;;2.80;;
6755;SDS011;3415;51.148;7.014;2022-08-03T07:55:32;3.63;;;2.13;;
6755;SDS011;3415;51.148;7.014;2022-08-03T07:58:03;3.70;;;2.17;;
6755;SDS011;3415;51.148;7.014;2022-08-03T08:00:33;3.10;;;2.60;;
6755;SDS011;3415;51.148;7.014;2022-08-03T08:03:00;5.37;;;2.80;;
6755;SDS011;3415;51.148;7.014;2022-08-03T08:05:28;5.30;;;2.27;;
6755;SDS011;3415;51.148;7.014;2022-08-03T08:07:57;4.60;;;2.17;;
6755;SDS011;3415;51.148;7.014;2022-08-03T08:10:24;4.30;;;2.10;;
6755;SDS011;3415;51.148;7.014;2022-08-03T08:12:51;7.37;;;2.40;;
6755;SDS011;3415;51.148;7.014;2022-08-03T08:15:18;4.87;;;2.20;;
6755;SDS011;3415;51.148;7.014;2022-08-03T08:17:46;3.20;;;2.20;;
6755;SDS011;3415;51.148;7.014;2022-08-03T08:20:16;3.07;;;2.37;;
6755;SDS011;3415;51.148;7.014;2022-08-03T08:22:45;2.70;;;2.30;;
6755;SDS011;3415;51.148;7.014;2022-08-03T08:25:13;2.40;;;2.20;;
6755;SDS011;3415;51.148;7.014;2022-08-03T08:27:41;2.47;;;2.27;;
6755;SDS011;3415;51.148;7.014;2022-08-03T08:30:11;4.00;;;1.80;;
6755;SDS011;3415;51.148;7.014;2022-08-03T08:32:39;2.43;;;1.80;;
6755;SDS011;3415;51.148;7.014;2022-08-03T08:35:07;5.77;;;2.27;;
6755;SDS011;3415;51.148;7.014;2022-08-03T08:37:35;2.60;;;2.00;;
6755;SDS011;3415;51.148;7.014;2022-08-03T08:40:03;3.27;;;2.30;;
6755;SDS011;3415;51.148;7.014;2022-08-03T08:42:34;3.37;;;2.47;;
6755;SDS011;3415;51.148;7.014;2022-08-03T08:45:04;6.00;;;2.07;;
6755;SDS011;3415;51.148;7.014;2022-08-03T08:47:33;3.10;;;2.10;;
6755;SDS011;3415;51.148;7.014;2022-08-03T08:50:04;2.87;;;1.70;;
6755;SDS011;3415;51.148;7.014;2022-08-03T08:52:33;3.33;;;1.90;;
6755;SDS011;3415;51.148;7.014;2022-08-03T08:55:04;3.50;;;2.00;;
6755;SDS011;3415;51.148;7.014;2022-08-03T08:57:35;5.87;;;2.00;;
6755;SDS011;3415;51.148;7.014;2022-08-03T09:00:09;1.93;;;1.73;;
6755;SDS011;3415;51.148;7.014;2022-08-03T09:02:38;2.50;;;1.90;;
6755;SDS011;3415;51.148;7.014;2022-08-03T09:05:08;2.87;;;2.30;;
6755;SDS011;3415;51.148;7.014;2022-08-03T09:07:37;3.20;;;2.40;;
6755;SDS011;3415;51.148;7.014;2022-08-03T09:10:04;4.80;;;2.20;;
6755;SDS011;3415;51.148;7.014;2022-08-03T09:12:37;4.03;;;2.27;;
6755;SDS011;3415;51.148;7.014;2022-08-03T09:15:16;5.20;;;2.20;;
6755;SDS011;3415;51.148;7.014;2022-08-03T09:17:47;2.97;;;2.30;;
6755;SDS011;3415;51.148;7.014;2022-08-03T09:20:14;3.63;;;2.20;;
6755;SDS011;3415;51.148;7.014;2022-08-03T09:22:50;2.33;;;2.10;;
6755;SDS011;3415;51.148;7.014;2022-08-03T09:25:25;2.90;;;2.17;;
6755;SDS011;3415;51.148;7.014;2022-08-03T09:28:09;6.00;;;1.90;;
6755;SDS011;3415;51.148;7.014;2022-08-03T09:30:38;2.90;;;2.47;;
6755;SDS011;3415;51.148;7.014;2022-08-03T09:33:07;4.03;;;1.93;;
6755;SDS011;3415;51.148;7.014;2022-08-03T09:35:41;7.27;;;2.17;;
6755;SDS011;3415;51.148;7.014;2022-08-03T09:38:10;2.40;;;2.00;;
6755;SDS011;3415;51.148;7.014;2022-08-03T09:40:40;6.63;;;2.23;;
6755;SDS011;3415;51.148;7.014;2022-08-03T09:43:09;3.67;;;2.13;;
6755;SDS011;3415;51.148;7.014;2022-08-03T09:45:37;2.90;;;2.07;;
6755;SDS011;3415;51.148;7.014;2022-08-03T09:48:22;6.03;;;2.10;;
6755;SDS011;3415;51.148;7.014;2022-08-03T09:50:51;4.40;;;1.90;;
6755;SDS011;3415;51.148;7.014;2022-08-03T09:53:20;4.20;;;2.23;;
6755;SDS011;3415;51.148;7.014;2022-08-03T09:55:52;3.93;;;1.77;;
6755;SDS011;3415;51.148;7.014;2022-08-03T09:58:22;2.27;;;1.90;;
6755;SDS011;3415;51.148;7.014;2022-08-03T10:00:54;5.30;;;2.00;;
6755;SDS011;3415;51.148;7.014;2022-08-03T10:03:25;4.70;;;2.20;;
6755;SDS011;3415;51.148;7.014;2022-08-03T10:05:53;3.80;;;1.90;;
6755;SDS011;3415;51.148;7.014;2022-08-03T10:08:21;5.07;;;2.13;;
6755;SDS011;3415;51.148;7.014;2022-08-03T10:10:49;2.90;;;1.83;;
6755;SDS011;3415;51.148;7.014;2022-08-03T10:13:19;7.50;;;2.20;;
6755;SDS011;3415;51.148;7.014;2022-08-03T10:15:48;2.33;;;2.17;;
6755;SDS011;3415;51.148;7.014;2022-08-03T10:18:16;3.00;;;1.83;;
6755;SDS011;3415;51.148;7.014;2022-08-03T10:20:45;4.50;;;1.77;;
6755;SDS011;3415;51.148;7.014;2022-08-03T10:23:17;4.10;;;1.80;;
6755;SDS011;3415;51.148;7.014;2022-08-03T10:25:46;3.47;;;1.60;;
6755;SDS011;3415;51.148;7.014;2022-08-03T10:28:15;2.60;;;1.60;;
6755;SDS011;3415;51.148;7.014;2022-08-03T10:30:48;9.10;;;1.80;;
6755;SDS011;3415;51.148;7.014;2022-08-03T10:33:19;6.40;;;2.37;;
6755;SDS011;3415;51.148;7.014;2022-08-03T10:35:49;3.37;;;1.70;;
6755;SDS011;3415;51.148;7.014;2022-08-03T10:38:21;2.23;;;1.50;;
6755;SDS011;3415;51.148;7.014;2022-08-03T10:40:54;2.77;;;1.40;;
6755;SDS011;3415;51.148;7.014;2022-08-03T10:43:25;1.77;;;1.50;;
6755;SDS011;3415;51.148;7.014;2022-08-03T10:46:00;3.90;;;1.50;;
6755;SDS011;3415;51.148;7.014;2022-08-03T10:48:30;3.37;;;1.77;;
6755;SDS011;3415;51.148;7.014;2022-08-03T10:50:59;1.67;;;1.37;;
6755;SDS011;3415;51.148;7.014;2022-08-03T10:53:36;4.47;;;1.93;;
6755;SDS011;3415;51.148;7.014;2022-08-03T10:56:06;3.27;;;1.47;;
6755;SDS011;3415;51.148;7.014;2022-08-03T11:05:31;2.80;;;1.30;;
6755;SDS011;3415;51.148;7.014;2022-08-03T11:08:21;2.70;;;1.60;;
6755;SDS011;3415;51.148;7.014;2022-08-03T11:10:54;2.63;;;1.40;;
6755;SDS011;3415;51.148;7.014;2022-08-03T11:13:25;2.80;;;1.77;;
6755;SDS011;3415;51.148;7.014;2022-08-03T11:15:57;3.30;;;1.50;;
6755;SDS011;3415;51.148;7.014;2022-08-03T11:18:29;4.40;;;1.67;;
6755;SDS011;3415;51.148;7.014;2022-08-03T11:20:56;2.67;;;1.60;;
6755;SDS011;3415;51.148;7.014;2022-08-03T11:23:41;2.73;;;1.90;;
6755;SDS011;3415;51.148;7.014;2022-08-03T11:26:19;1.30;;;1.20;;
6755;SDS011;3415;51.148;7.014;2022-08-03T11:28:46;1.60;;;1.50;;
6755;SDS011;3415;51.148;7.014;2022-08-03T11:34:14;4.00;;;1.67;;
6755;SDS011;3415;51.148;7.014;2022-08-03T11:39:51;1.53;;;1.40;;
6755;SDS011;3415;51.148;7.014;2022-08-03T11:42:39;2.50;;;1.73;;
6755;SDS011;3415;51.148;7.014;2022-08-03T11:45:09;6.77;;;1.50;;
6755;SDS011;3415;51.148;7.014;2022-08-03T11:47:38;9.67;;;1.47;;
6755;SDS011;3415;51.148;7.014;2022-08-03T11:50:08;3.53;;;1.60;;
6755;SDS011;3415;51.148;7.014;2022-08-03T11:52:37;6.87;;;1.43;;
6755;SDS011;3415;51.148;7.014;2022-08-03T11:55:08;1.63;;;1.33;;
6755;SDS011;3415;51.148;7.014;2022-08-03T11:57:42;2.03;;;1.37;;
6755;SDS011;3415;51.148;7.014;2022-08-03T12:00:24;2.30;;;1.43;;
6755;SDS011;3415;51.148;7.014;2022-08-03T12:02:55;1.93;;;1.27;;
6755;SDS011;3415;51.148;7.014;2022-08-03T12:05:39;2.30;;;1.53;;
6755;SDS011;3415;51.148;7.014;2022-08-03T12:08:10;2.90;;;1.60;;
6755;SDS011;3415;51.148;7.014;2022-08-03T12:10:43;1.50;;;1.40;;
6755;SDS011;3415;51.148;7.014;2022-08-03T12:13:14;2.13;;;1.30;;
6755;SDS011;3415;51.148;7.014;2022-08-03T12:15:42;2.97;;;1.50;;
6755;SDS011;3415;51.148;7.014;2022-08-03T12:18:16;2.30;;;1.20;;
6755;SDS011;3415;51.148;7.014;2022-08-03T12:20:47;3.03;;;1.70;;
6755;SDS011;3415;51.148;7.014;2022-08-03T12:23:15;8.20;;;1.40;;
6755;SDS011;3415;51.148;7.014;2022-08-03T12:25:43;5.97;;;1.63;;
6755;SDS011;3415;51.148;7.014;2022-08-03T12:28:13;1.27;;;1.10;;
6755;SDS011;3415;51.148;7.014;2022-08-03T12:30:43;1.77;;;1.30;;
6755;SDS011;3415;51.148;7.014;2022-08-03T12:33:16;3.37;;;1.40;;
6755;SDS011;3415;51.148;7.014;2022-08-03T12:35:49;1.77;;;1.23;;
6755;SDS011;3415;51.148;7.014;2022-08-03T12:38:32;4.47;;;1.13;;
6755;SDS011;3415;51.148;7.014;2022-08-03T12:41:02;2.63;;;1.50;;
6755;SDS011;3415;51.148;7.014;2022-08-03T12:43:32;3.23;;;1.47;;
6755;SDS011;3415;51.148;7.014;2022-08-03T12:46:10;3.17;;;1.50;;
6755;SDS011;3415;51.148;7.014;2022-08-03T12:48:57;1.40;;;1.30;;
6755;SDS011;3415;51.148;7.014;2022-08-03T12:51:57;2.87;;;1.40;;
6755;SDS011;3415;51.148;7.014;2022-08-03T12:54:26;2.87;;;1.47;;
6755;SDS011;3415;51.148;7.014;2022-08-03T12:56:56;3.43;;;1.60;;
6755;SDS011;3415;51.148;7.014;2022-08-03T12:59:25;2.50;;;1.40;;
6755;SDS011;3415;51.148;7.014;2022-08-03T13:01:53;3.03;;;1.77;;
6755;SDS011;3415;51.148;7.014;2022-08-03T13:04:24;1.73;;;1.50;;
6755;SDS011;3415;51.148;7.014;2022-08-03T13:06:57;2.43;;;1.50;;
6755;SDS011;3415;51.148;7.014;2022-08-03T13:09:26;2.63;;;1.33;;
6755;SDS011;3415;51.148;7.014;2022-08-03T13:12:05;1.90;;;1.20;;
6755;SDS011;3415;51.148;7.014;2022-08-03T13:14:34;5.63;;;2.10;;
6755;SDS011;3415;51.148;7.014;2022-08-03T13:17:02;3.73;;;1.50;;
6755;SDS011;3415;51.148;7.014;2022-08-03T13:19:30;6.90;;;1.50;;
6755;SDS011;3415;51.148;7.014;2022-08-03T13:21:59;2.30;;;1.30;;
6755;SDS011;3415;51.148;7.014;2022-08-03T13:24:26;3.13;;;1.67;;
6755;SDS011;3415;51.148;7.014;2022-08-03T13:26:54;1.53;;;1.30;;
6755;SDS011;3415;51.148;7.014;2022-08-03T13:29:21;2.50;;;1.50;;
6755;SDS011;3415;51.148;7.014;2022-08-03T13:31:48;2.17;;;1.40;;
6755;SDS011;3415;51.148;7.014;2022-08-03T13:34:15;4.73;;;1.40;;
6755;SDS011;3415;51.148;7.014;2022-08-03T13:36:43;3.30;;;1.60;;
6755;SDS011;3415;51.148;7.014;2022-08-03T13:39:11;1.60;;;1.50;;
6755;SDS011;3415;51.148;7.014;2022-08-03T13:41:39;1.27;;;1.17;;
6755;SDS011;3415;51.148;7.014;2022-08-03T13:44:06;3.47;;;1.63;;
6755;SDS011;3415;51.148;7.014;2022-08-03T13:46:33;1.53;;;1.40;;
6755;SDS011;3415;51.148;7.014;2022-08-03T13:49:00;1.47;;;1.30;;
6755;SDS011;3415;51.148;7.014;2022-08-03T13:51:27;5.83;;;1.50;;
6755;SDS011;3415;51.148;7.014;2022-08-03T13:53:54;4.30;;;1.30;;
6755;SDS011;3415;51.148;7.014;2022-08-03T13:56:25;3.93;;;1.60;;
6755;SDS011;3415;51.148;7.014;2022-08-03T13:58:52;1.97;;;1.53;;
6755;SDS011;3415;51.148;7.014;2022-08-03T14:01:19;2.13;;;1.30;;
6755;SDS011;3415;51.148;7.014;2022-08-03T14:03:47;2.93;;;1.83;;
6755;SDS011;3415;51.148;7.014;2022-08-03T14:06:16;3.50;;;1.53;;
6755;SDS011;3415;51.148;7.014;2022-08-03T14:08:43;1.30;;;1.20;;
6755;SDS011;3415;51.148;7.014;2022-08-03T14:11:12;1.50;;;1.40;;
6755;SDS011;3415;51.148;7.014;2022-08-03T14:13:40;3.33;;;1.50;;
6755;SDS011;3415;51.148;7.014;2022-08-03T14:16:08;4.47;;;1.50;;
6755;SDS011;3415;51.148;7.014;2022-08-03T14:18:35;2.10;;;1.60;;
6755;SDS011;3415;51.148;7.014;2022-08-03T14:21:03;2.57;;;1.40;;
6755;SDS011;3415;51.148;7.014;2022-08-03T14:23:31;2.97;;;1.43;;
6755;SDS011;3415;51.148;7.014;2022-08-03T14:25:58;1.50;;;1.40;;
6755;SDS011;3415;51.148;7.014;2022-08-03T14:28:25;2.20;;;1.40;;
6755;SDS011;3415;51.148;7.014;2022-08-03T14:30:54;5.53;;;1.60;;
6755;SDS011;3415;51.148;7.014;2022-08-03T14:33:21;1.90;;;1.60;;
6755;SDS011;3415;51.148;7.014;2022-08-03T14:35:49;5.00;;;1.87;;
6755;SDS011;3415;51.148;7.014;2022-08-03T14:38:17;3.63;;;1.70;;
6755;SDS011;3415;51.148;7.014;2022-08-03T14:40:45;1.43;;;1.30;;
6755;SDS011;3415;51.148;7.014;2022-08-03T14:43:13;3.33;;;1.40;;
6755;SDS011;3415;51.148;7.014;2022-08-03T14:45:41;6.30;;;1.40;;
6755;SDS011;3415;51.148;7.014;2022-08-03T14:48:10;5.10;;;1.60;;
6755;SDS011;3415;51.148;7.014;2022-08-03T14:50:37;2.87;;;1.30;;
6755;SDS011;3415;51.148;7.014;2022-08-03T14:53:05;1.93;;;1.43;;
6755;SDS011;3415;51.148;7.014;2022-08-03T14:55:32;2.00;;;1.37;;
6755;SDS011;3415;51.148;7.014;2022-08-03T14:57:59;3.57;;;1.57;;
6755;SDS011;3415;51.148;7.014;2022-08-03T15:00:29;17.17;;;1.63;;
6755;SDS011;3415;51.148;7.014;2022-08-03T15:02:57;1.53;;;1.40;;
6755;SDS011;3415;51.148;7.014;2022-08-03T15:05:25;4.80;;;1.80;;
6755;SDS011;3415;51.148;7.014;2022-08-03T15:07:52;5.63;;;1.57;;
6755;SDS011;3415;51.148;7.014;2022-08-03T15:10:19;2.90;;;1.60;;
6755;SDS011;3415;51.148;7.014;2022-08-03T15:12:47;5.23;;;1.40;;
6755;SDS011;3415;51.148;7.014;2022-08-03T15:15:14;2.80;;;1.47;;
6755;SDS011;3415;51.148;7.014;2022-08-03T15:17:41;1.30;;;1.20;;
6755;SDS011;3415;51.148;7.014;2022-08-03T15:20:08;3.10;;;1.40;;
6755;SDS011;3415;51.148;7.014;2022-08-03T15:22:39;2.27;;;1.40;;
6755;SDS011;3415;51.148;7.014;2022-08-03T15:25:08;5.50;;;1.43;;
6755;SDS011;3415;51.148;7.014;2022-08-03T15:27:37;1.47;;;1.37;;
6755;SDS011;3415;51.148;7.014;2022-08-03T15:30:04;2.27;;;1.60;;
6755;SDS011;3415;51.148;7.014;2022-08-03T15:32:34;4.97;;;1.90;;
6755;SDS011;3415;51.148;7.014;2022-08-03T15:35:01;3.17;;;1.57;;
6755;SDS011;3415;51.148;7.014;2022-08-03T15:37:28;1.97;;;1.70;;
6755;SDS011;3415;51.148;7.014;2022-08-03T15:39:57;4.60;;;1.97;;
6755;SDS011;3415;51.148;7.014;2022-08-03T15:42:24;1.60;;;1.30;;
6755;SDS011;3415;51.148;7.014;2022-08-03T15:44:51;2.20;;;1.50;;
6755;SDS011;3415;51.148;7.014;2022-08-03T15:47:18;2.03;;;1.73;;
6755;SDS011;3415;51.148;7.014;2022-08-03T15:49:45;3.57;;;1.40;;
6755;SDS011;3415;51.148;7.014;2022-08-03T15:52:12;4.50;;;1.60;;
6755;SDS011;3415;51.148;7.014;2022-08-03T15:54:39;2.23;;;1.60;;
6755;SDS011;3415;51.148;7.014;2022-08-03T15:57:07;2.00;;;1.30;;
6755;SDS011;3415;51.148;7.014;2022-08-03T15:59:34;1.90;;;1.30;;
6755;SDS011;3415;51.148;7.014;2022-08-03T16:02:01;3.70;;;1.60;;
6755;SDS011;3415;51.148;7.014;2022-08-03T16:04:29;3.37;;;1.60;;
6755;SDS011;3415;51.148;7.014;2022-08-03T16:06:56;2.80;;;1.70;;
6755;SDS011;3415;51.148;7.014;2022-08-03T16:09:23;3.90;;;1.77;;
6755;SDS011;3415;51.148;7.014;2022-08-03T16:11:50;1.50;;;1.20;;
6755;SDS011;3415;51.148;7.014;2022-08-03T16:14:19;3.57;;;1.77;;
6755;SDS011;3415;51.148;7.014;2022-08-03T16:16:46;6.30;;;1.83;;
6755;SDS011;3415;51.148;7.014;2022-08-03T16:19:13;2.70;;;1.40;;
6755;SDS011;3415;51.148;7.014;2022-08-03T16:21:40;1.20;;;1.10;;
6755;SDS011;3415;51.148;7.014;2022-08-03T16:24:07;5.17;;;1.30;;
6755;SDS011;3415;51.148;7.014;2022-08-03T16:26:34;2.20;;;1.30;;
6755;SDS011;3415;51.148;7.014;2022-08-03T16:29:01;3.30;;;1.60;;
6755;SDS011;3415;51.148;7.014;2022-08-03T16:31:30;2.93;;;1.20;;
6755;SDS011;3415;51.148;7.014;2022-08-03T16:33:57;2.63;;;1.03;;
6755;SDS011;3415;51.148;7.014;2022-08-03T16:36:24;1.83;;;1.50;;
6755;SDS011;3415;51.148;7.014;2022-08-03T16:38:51;3.00;;;1.13;;
6755;SDS011;3415;51.148;7.014;2022-08-03T16:41:18;0.70;;;0.70;;
6755;SDS011;3415;51.148;7.014;2022-08-03T16:43:45;2.80;;;1.10;;
6755;SDS011;3415;51.148;7.014;2022-08-03T16:46:12;1.27;;;1.27;;
6755;SDS011;3415;51.148;7.014;2022-08-03T16:48:41;1.40;;;1.30;;
6755;SDS011;3415;51.148;7.014;2022-08-03T16:51:08;1.43;;;1.33;;
6755;SDS011;3415;51.148;7.014;2022-08-03T16:53:35;1.93;;;1.10;;
6755;SDS011;3415;51.148;7.014;2022-08-03T16:56:02;2.80;;;1.10;;
6755;SDS011;3415;51.148;7.014;2022-08-03T16:58:30;3.40;;;1.27;;
6755;SDS011;3415;51.148;7.014;2022-08-03T17:00:59;2.53;;;1.10;;
6755;SDS011;3415;51.148;7.014;2022-08-03T17:03:26;2.40;;;1.27;;
6755;SDS011;3415;51.148;7.014;2022-08-03T17:05:55;1.73;;;1.63;;
6755;SDS011;3415;51.148;7.014;2022-08-03T17:08:23;1.87;;;1.23;;
6755;SDS011;3415;51.148;7.014;2022-08-03T17:10:50;1.00;;;1.00;;
6755;SDS011;3415;51.148;7.014;2022-08-03T17:13:17;2.43;;;1.03;;
6755;SDS011;3415;51.148;7.014;2022-08-03T17:15:44;1.17;;;0.90;;
6755;SDS011;3415;51.148;7.014;2022-08-03T17:18:15;3.40;;;1.30;;
6755;SDS011;3415;51.148;7.014;2022-08-03T17:20:45;5.70;;;1.20;;
6755;SDS011;3415;51.148;7.014;2022-08-03T17:23:22;6.80;;;1.40;;
6755;SDS011;3415;51.148;7.014;2022-08-03T17:26:03;4.67;;;1.50;;
6755;SDS011;3415;51.148;7.014;2022-08-03T17:28:36;5.47;;;1.27;;
6755;SDS011;3415;51.148;7.014;2022-08-03T17:31:07;1.13;;;1.00;;
6755;SDS011;3415;51.148;7.014;2022-08-03T17:33:42;1.23;;;1.10;;
6755;SDS011;3415;51.148;7.014;2022-08-03T17:36:11;2.07;;;1.40;;
6755;SDS011;3415;51.148;7.014;2022-08-03T17:38:46;1.37;;;1.27;;
6755;SDS011;3415;51.148;7.014;2022-08-03T17:41:14;2.10;;;1.47;;
6755;SDS011;3415;51.148;7.014;2022-08-03T17:43:42;1.20;;;1.10;;
6755;SDS011;3415;51.148;7.014;2022-08-03T17:46:11;4.93;;;1.20;;
6755;SDS011;3415;51.148;7.014;2022-08-03T17:48:38;4.10;;;2.03;;
6755;SDS011;3415;51.148;7.014;2022-08-03T17:51:06;4.23;;;1.17;;
6755;SDS011;3415;51.148;7.014;2022-08-03T17:53:42;4.30;;;1.87;;
6755;SDS011;3415;51.148;7.014;2022-08-03T17:56:20;2.20;;;1.33;;
6755;SDS011;3415;51.148;7.014;2022-08-03T17:58:54;2.27;;;1.47;;
6755;SDS011;3415;51.148;7.014;2022-08-03T18:01:31;1.53;;;1.43;;
6755;SDS011;3415;51.148;7.014;2022-08-03T18:04:27;2.70;;;1.37;;
6755;SDS011;3415;51.148;7.014;2022-08-03T18:06:58;2.00;;;1.00;;
6755;SDS011;3415;51.148;7.014;2022-08-03T18:09:31;1.73;;;1.57;;
6755;SDS011;3415;51.148;7.014;2022-08-03T18:12:01;3.73;;;1.37;;
6755;SDS011;3415;51.148;7.014;2022-08-03T18:14:34;4.47;;;1.03;;
6755;SDS011;3415;51.148;7.014;2022-08-03T18:17:13;1.80;;;1.30;;
6755;SDS011;3415;51.148;7.014;2022-08-03T18:19:47;4.00;;;1.40;;
6755;SDS011;3415;51.148;7.014;2022-08-03T18:22:15;7.50;;;1.50;;
6755;SDS011;3415;51.148;7.014;2022-08-03T18:24:48;3.27;;;1.23;;
6755;SDS011;3415;51.148;7.014;2022-08-03T18:27:15;1.50;;;0.97;;
6755;SDS011;3415;51.148;7.014;2022-08-03T18:29:42;6.10;;;1.70;;
6755;SDS011;3415;51.148;7.014;2022-08-03T18:32:10;2.60;;;1.00;;
6755;SDS011;3415;51.148;7.014;2022-08-03T18:34:38;1.10;;;1.00;;
6755;SDS011;3415;51.148;7.014;2022-08-03T18:37:05;3.13;;;1.10;;
6755;SDS011;3415;51.148;7.014;2022-08-03T18:39:33;2.33;;;1.10;;
6755;SDS011;3415;51.148;7.014;2022-08-03T18:42:04;3.57;;;1.60;;
6755;SDS011;3415;51.148;7.014;2022-08-03T18:44:32;1.43;;;1.07;;
6755;SDS011;3415;51.148;7.014;2022-08-03T18:47:06;1.60;;;1.23;;
6755;SDS011;3415;51.148;7.014;2022-08-03T18:49:59;1.73;;;1.10;;
6755;SDS011;3415;51.148;7.014;2022-08-03T18:52:35;1.67;;;1.20;;
6755;SDS011;3415;51.148;7.014;2022-08-03T18:55:10;1.60;;;1.20;;
6755;SDS011;3415;51.148;7.014;2022-08-03T18:57:48;3.00;;;1.47;;
6755;SDS011;3415;51.148;7.014;2022-08-03T19:00:19;2.20;;;1.20;;
6755;SDS011;3415;51.148;7.014;2022-08-03T19:02:48;1.50;;;1.23;;
6755;SDS011;3415;51.148;7.014;2022-08-03T19:05:23;4.80;;;3.77;;
6755;SDS011;3415;51.148;7.014;2022-08-03T19:07:53;10.30;;;4.20;;
6755;SDS011;3415;51.148;7.014;2022-08-03T19:10:25;6.90;;;1.80;;
6755;SDS011;3415;51.148;7.014;2022-08-03T19:12:57;5.90;;;3.20;;
6755;SDS011;3415;51.148;7.014;2022-08-03T19:15:31;8.10;;;3.07;;
6755;SDS011;3415;51.148;7.014;2022-08-03T19:18:00;6.67;;;2.03;;
6755;SDS011;3415;51.148;7.014;2022-08-03T19:20:29;3.07;;;1.50;;
6755;SDS011;3415;51.148;7.014;2022-08-03T19:22:57;3.57;;;1.70;;
6755;SDS011;3415;51.148;7.014;2022-08-03T19:25:25;2.27;;;1.50;;
6755;SDS011;3415;51.148;7.014;2022-08-03T19:27:53;3.03;;;1.80;;
6755;SDS011;3415;51.148;7.014;2022-08-03T19:30:22;3.00;;;2.00;;
6755;SDS011;3415;51.148;7.014;2022-08-03T19:33:04;3.50;;;1.70;;
6755;SDS011;3415;51.148;7.014;2022-08-03T19:35:32;1.67;;;1.57;;
6755;SDS011;3415;51.148;7.014;2022-08-03T19:38:00;9.37;;;1.50;;
6755;SDS011;3415;51.148;7.014;2022-08-03T19:40:27;2.27;;;1.40;;
6755;SDS011;3415;51.148;7.014;2022-08-03T19:42:58;2.00;;;1.80;;
6755;SDS011;3415;51.148;7.014;2022-08-03T19:45:31;3.60;;;1.37;;
6755;SDS011;3415;51.148;7.014;2022-08-03T19:48:04;4.13;;;1.57;;
6755;SDS011;3415;51.148;7.014;2022-08-03T19:50:33;2.20;;;1.63;;
6755;SDS011;3415;51.148;7.014;2022-08-03T19:53:03;5.33;;;1.57;;
6755;SDS011;3415;51.148;7.014;2022-08-03T19:55:33;2.00;;;1.60;;
6755;SDS011;3415;51.148;7.014;2022-08-03T19:58:04;2.40;;;1.43;;
6755;SDS011;3415;51.148;7.014;2022-08-03T20:00:35;2.90;;;1.60;;
6755;SDS011;3415;51.148;7.014;2022-08-03T20:03:04;9.30;;;1.57;;
6755;SDS011;3415;51.148;7.014;2022-08-03T20:05:32;12.13;;;2.17;;
6755;SDS011;3415;51.148;7.014;2022-08-03T20:08:00;1.90;;;1.70;;
6755;SDS011;3415;51.148;7.014;2022-08-03T20:10:30;9.03;;;2.13;;
6755;SDS011;3415;51.148;7.014;2022-08-03T20:12:59;5.93;;;1.80;;
6755;SDS011;3415;51.148;7.014;2022-08-03T20:15:26;2.60;;;1.50;;
6755;SDS011;3415;51.148;7.014;2022-08-03T20:17:55;2.13;;;1.40;;
6755;SDS011;3415;51.148;7.014;2022-08-03T20:20:23;5.17;;;1.90;;
6755;SDS011;3415;51.148;7.014;2022-08-03T20:22:53;4.53;;;2.13;;
6755;SDS011;3415;51.148;7.014;2022-08-03T20:25:23;3.40;;;2.10;;
6755;SDS011;3415;51.148;7.014;2022-08-03T20:27:56;3.17;;;2.03;;
6755;SDS011;3415;51.148;7.014;2022-08-03T20:30:29;5.13;;;2.97;;
6755;SDS011;3415;51.148;7.014;2022-08-03T20:32:58;1.90;;;1.70;;
6755;SDS011;3415;51.148;7.014;2022-08-03T20:35:25;2.63;;;1.50;;
6755;SDS011;3415;51.148;7.014;2022-08-03T20:37:52;2.10;;;1.57;;
6755;SDS011;3415;51.148;7.014;2022-08-03T20:40:20;2.40;;;1.33;;
6755;SDS011;3415;51.148;7.014;2022-08-03T20:42:48;2.57;;;1.83;;